Time;durP1;ratioP1;P1;durP2;ratioP2;P2;SDS_P1;SDS_P2;PMS_P1;PMS_P2;Temp;Humidity;BMP_temperature;BMP_pressure;BME280_temperature;BME280_humidity;BME280_pressure;Samples;Min_cycle;Max_cycle;Signal;HPM_P1;HPM_P2
2022/11/06 00:00:57;;;;;;;1.52;1.42;;;11.10;99.90;;;;;;4228484;28;20051;-86
2022/11/06 00:03:16;;;;;;;1.42;1.30;;;11.10;99.90;;;;;;4231160;28;20077;-87
2022/11/06 00:08:32;;;;;;;1.58;1.42;;;11.00;99.90;;;;;;4231190;28;20043;-86
2022/11/06 00:10:52;;;;;;;1.85;1.40;;;11.00;99.90;;;;;;4215146;28;20227;-86
2022/11/06 00:13:12;;;;;;;1.50;1.50;;;11.00;99.90;;;;;;4218482;28;20143;-87
2022/11/06 00:15:33;;;;;;;1.30;1.30;;;10.90;99.90;;;;;;4227425;28;20365;-86
2022/11/06 00:17:53;;;;;;;2.28;1.30;;;10.90;99.90;;;;;;4222892;28;20046;-86
2022/11/06 00:20:13;;;;;;;1.27;1.27;;;10.80;99.90;;;;;;4230835;28;20061;-87
2022/11/06 00:22:34;;;;;;;1.60;1.33;;;10.80;99.90;;;;;;4230574;28;20076;-86
2022/11/06 00:24:55;;;;;;;1.27;1.20;;;10.80;99.90;;;;;;4229545;28;20086;-86
2022/11/06 00:27:15;;;;;;;1.38;1.38;;;11.00;99.90;;;;;;4228448;28;20055;-86
2022/11/06 00:29:35;;;;;;;1.48;1.38;;;11.00;99.90;;;;;;4234085;28;20042;-86
2022/11/06 00:31:54;;;;;;;2.05;1.58;;;10.80;99.90;;;;;;4230165;28;20419;-86
2022/11/06 00:34:14;;;;;;;1.30;1.30;;;10.80;99.90;;;;;;4229443;28;20066;-86
2022/11/06 00:36:34;;;;;;;1.52;1.40;;;11.00;99.90;;;;;;4230583;28;20061;-87
2022/11/06 00:38:56;;;;;;;2.00;1.90;;;11.00;99.90;;;;;;4222885;28;20069;-86
2022/11/06 00:41:16;;;;;;;2.15;1.65;;;10.90;99.90;;;;;;4231145;28;20047;-87
2022/11/06 00:43:36;;;;;;;1.20;1.20;;;10.90;99.90;;;;;;4231857;28;20042;-86
2022/11/06 00:46:05;;;;;;;1.42;1.42;;;10.80;99.90;;;;;;4219148;28;20082;-86
2022/11/06 00:48:26;;;;;;;1.30;1.30;;;10.70;99.90;;;;;;4234358;28;20415;-86
2022/11/06 00:50:46;;;;;;;2.35;1.63;;;10.80;99.90;;;;;;4229448;28;20081;-86
2022/11/06 00:53:06;;;;;;;2.25;1.90;;;11.10;99.90;;;;;;4230661;28;20234;-86
2022/11/06 00:55:25;;;;;;;1.70;1.60;;;11.20;99.90;;;;;;4231764;28;20058;-86
2022/11/06 00:57:45;;;;;;;2.17;1.92;;;11.20;99.90;;;;;;4221741;28;20147;-87
2022/11/06 01:00:06;;;;;;;1.20;1.20;;;11.20;99.90;;;;;;4229085;28;20046;-86
2022/11/06 01:02:26;;;;;;;1.55;1.45;;;11.40;99.90;;;;;;4227887;28;20054;-86
2022/11/06 01:04:47;;;;;;;1.58;1.48;;;11.30;99.90;;;;;;4226676;28;20134;-87
2022/11/06 01:07:07;;;;;;;2.33;2.33;;;11.40;99.90;;;;;;4227905;28;20077;-86
2022/11/06 01:09:28;;;;;;;1.55;1.55;;;11.30;99.90;;;;;;4228880;28;20074;-87
2022/11/06 01:11:50;;;;;;;3.22;1.52;;;11.20;99.90;;;;;;4230738;28;20051;-86
2022/11/06 01:14:30;;;;;;;1.50;1.40;;;11.10;99.90;;;;;;4230266;28;20051;-86
2022/11/06 01:16:50;;;;;;;1.40;1.40;;;11.20;99.90;;;;;;4228744;28;20035;-86
2022/11/06 01:19:12;;;;;;;1.58;1.48;;;11.30;99.90;;;;;;4213349;28;20124;-86
2022/11/06 01:21:36;;;;;;;1.80;1.80;;;11.30;99.90;;;;;;4226880;28;20051;-87
2022/11/06 01:24:03;;;;;;;1.83;1.67;;;11.20;99.90;;;;;;4225618;28;20353;-86
2022/11/06 01:26:25;;;;;;;1.38;1.38;;;11.20;99.90;;;;;;4213250;28;20039;-87
2022/11/06 01:28:59;;;;;;;1.20;1.20;;;11.20;99.90;;;;;;4222339;28;20115;-87
2022/11/06 01:31:21;;;;;;;1.40;1.30;;;11.10;99.90;;;;;;4219605;28;20047;-87
2022/11/06 01:33:42;;;;;;;1.50;1.45;;;11.00;99.90;;;;;;4229018;28;20080;-87
2022/11/06 01:36:02;;;;;;;1.40;1.40;;;10.90;99.90;;;;;;4216840;28;20047;-86
2022/11/06 01:38:22;;;;;;;1.67;1.67;;;10.80;99.90;;;;;;4223146;28;20383;-87
2022/11/06 01:40:45;;;;;;;1.30;1.30;;;10.90;99.90;;;;;;4216742;28;20146;-86
2022/11/06 01:43:18;;;;;;;1.90;1.50;;;11.00;99.90;;;;;;4230713;28;20076;-86
2022/11/06 01:45:39;;;;;;;1.48;1.40;;;11.10;99.90;;;;;;4232995;28;20107;-86
2022/11/06 01:48:00;;;;;;;1.50;1.50;;;11.00;99.90;;;;;;4231833;28;20043;-86
2022/11/06 01:50:20;;;;;;;1.45;1.45;;;11.00;99.90;;;;;;4222296;28;20114;-87
2022/11/06 01:52:42;;;;;;;1.33;1.30;;;10.90;99.90;;;;;;4221865;28;20059;-86
2022/11/06 01:55:31;;;;;;;2.88;1.45;;;10.80;99.90;;;;;;4225400;28;20101;-86
2022/11/06 01:57:52;;;;;;;1.60;1.60;;;10.90;99.90;;;;;;4232484;28;20055;-87
2022/11/06 02:00:13;;;;;;;1.60;1.50;;;11.00;99.90;;;;;;4218697;28;20092;-86
2022/11/06 02:02:33;;;;;;;1.40;1.40;;;10.90;99.90;;;;;;4223496;28;20358;-87
2022/11/06 02:04:54;;;;;;;1.45;1.40;;;10.80;99.90;;;;;;4223640;28;20043;-86
2022/11/06 02:07:16;;;;;;;1.60;1.60;;;10.80;99.90;;;;;;4225009;28;20062;-86
2022/11/06 02:09:36;;;;;;;1.40;1.40;;;10.80;99.90;;;;;;4231601;28;20047;-86
2022/11/06 02:12:02;;;;;;;3.10;1.50;;;10.80;99.90;;;;;;4231605;28;20063;-87
2022/11/06 02:14:55;;;;;;;1.60;1.60;;;10.70;99.90;;;;;;4216600;28;20059;-86
2022/11/06 02:17:24;;;;;;;2.95;1.88;;;10.60;99.90;;;;;;4217337;28;20087;-86
2022/11/06 02:20:11;;;;;;;1.73;1.73;;;10.60;99.90;;;;;;4232145;28;20046;-86
2022/11/06 02:23:06;;;;;;;1.33;1.33;;;10.60;99.90;;;;;;4211864;28;20086;-87
2022/11/06 02:25:45;;;;;;;1.98;1.20;;;10.60;99.90;;;;;;4229006;28;20043;-86
2022/11/06 02:28:18;;;;;;;1.35;1.35;;;10.50;99.90;;;;;;4231782;28;20369;-86
2022/11/06 02:30:43;;;;;;;1.63;1.63;;;10.40;99.90;;;;;;4231382;28;20043;-87
2022/11/06 02:33:09;;;;;;;1.40;1.30;;;10.30;99.90;;;;;;4229992;28;20043;-86
2022/11/06 02:35:43;;;;;;;1.80;1.70;;;10.40;99.90;;;;;;4235261;28;20069;-86
2022/11/06 02:38:07;;;;;;;2.65;2.35;;;10.70;99.90;;;;;;4221104;28;20100;-87
2022/11/06 02:40:32;;;;;;;1.55;1.55;;;10.70;99.90;;;;;;4226106;28;20070;-87
2022/11/06 02:42:56;;;;;;;2.05;1.88;;;10.70;99.90;;;;;;4230931;28;20103;-86
2022/11/06 02:45:18;;;;;;;2.42;1.70;;;10.70;99.90;;;;;;4217242;28;20329;-87
2022/11/06 02:47:39;;;;;;;1.27;1.27;;;10.60;99.90;;;;;;4233917;28;20073;-86
2022/11/06 02:50:09;;;;;;;1.48;1.35;;;10.70;99.90;;;;;;4232222;28;20054;-86
2022/11/06 02:53:01;;;;;;;1.60;1.50;;;10.70;99.90;;;;;;4216812;28;20091;-87
2022/11/06 02:55:30;;;;;;;1.83;1.30;;;10.80;99.90;;;;;;4214424;28;20106;-87
2022/11/06 02:57:55;;;;;;;1.60;1.50;;;10.70;99.90;;;;;;4228945;28;20048;-86
2022/11/06 03:00:16;;;;;;;1.30;1.30;;;10.70;99.90;;;;;;4231290;28;20043;-87
2022/11/06 03:02:41;;;;;;;1.20;1.20;;;10.60;99.90;;;;;;4231451;28;20235;-87
2022/11/06 03:05:12;;;;;;;1.70;1.60;;;10.60;99.90;;;;;;4224189;28;20409;-87
2022/11/06 03:08:03;;;;;;;1.40;1.40;;;10.40;99.90;;;;;;4232047;28;20050;-87
2022/11/06 03:10:27;;;;;;;2.35;1.70;;;10.30;99.90;;;;;;4223281;28;20381;-86
2022/11/06 03:13:23;;;;;;;2.63;1.40;;;10.40;99.90;;;;;;4229757;28;20243;-87
2022/11/06 03:16:10;;;;;;;1.60;1.50;;;10.60;99.90;;;;;;4206990;28;20043;-86
2022/11/06 03:18:40;;;;;;;1.20;1.20;;;10.70;99.90;;;;;;4221483;28;20289;-87
2022/11/06 03:21:02;;;;;;;2.30;2.20;;;10.70;99.90;;;;;;4232020;28;20038;-87
2022/11/06 03:23:26;;;;;;;3.92;2.22;;;10.60;99.90;;;;;;4231745;28;20088;-87
2022/11/06 03:25:53;;;;;;;1.33;1.33;;;10.50;99.90;;;;;;4230969;28;20230;-87
2022/11/06 03:28:31;;;;;;;1.67;1.60;;;10.40;99.90;;;;;;4230387;28;20055;-87
2022/11/06 03:30:56;;;;;;;1.52;1.52;;;10.60;99.90;;;;;;4215022;28;20299;-87
2022/11/06 03:33:19;;;;;;;2.13;2.03;;;10.90;99.90;;;;;;4232214;28;20082;-86
2022/11/06 03:35:49;;;;;;;1.50;1.50;;;10.90;99.90;;;;;;4215052;28;20239;-86
2022/11/06 03:38:27;;;;;;;1.63;1.52;;;10.80;99.90;;;;;;4231598;28;20047;-86
2022/11/06 03:40:51;;;;;;;1.40;1.40;;;10.80;99.90;;;;;;4231449;28;20047;-86
2022/11/06 03:43:15;;;;;;;2.38;2.17;;;10.70;99.90;;;;;;4230622;28;20043;-87
2022/11/06 03:45:38;;;;;;;1.95;1.63;;;10.70;99.90;;;;;;4230606;28;20042;-86
2022/11/06 03:48:24;;;;;;;1.30;1.30;;;10.50;99.90;;;;;;4231849;28;20038;-87
2022/11/06 03:50:57;;;;;;;1.52;1.48;;;10.40;99.90;;;;;;4234719;28;20100;-86
2022/11/06 03:53:23;;;;;;;1.73;1.63;;;10.60;99.90;;;;;;4223679;28;20398;-86
2022/11/06 03:55:58;;;;;;;1.65;1.65;;;10.60;99.90;;;;;;4217675;28;20058;-87
2022/11/06 03:58:23;;;;;;;1.40;1.40;;;10.50;99.90;;;;;;4222925;28;20073;-86
2022/11/06 04:00:44;;;;;;;1.40;1.40;;;10.40;99.90;;;;;;4230067;28;20059;-86
2022/11/06 04:03:12;;;;;;;1.25;1.25;;;10.30;99.90;;;;;;4224153;28;20370;-87
2022/11/06 04:05:43;;;;;;;2.72;1.52;;;10.30;99.90;;;;;;4219606;28;20039;-86
2022/11/06 04:16:10;;;;;;;1.40;1.40;;;10.40;99.90;;;;;;4228634;28;20085;-87
2022/11/06 04:18:30;;;;;;;1.48;1.48;;;10.40;99.90;;;;;;4223929;28;20062;-87
2022/11/06 04:21:25;;;;;;;1.30;1.30;;;10.30;99.90;;;;;;4234596;28;20086;-87
2022/11/06 04:27:01;;;;;;;2.65;1.80;;;10.30;99.90;;;;;;4230701;28;20077;-86
2022/11/06 04:29:47;;;;;;;1.92;1.85;;;10.40;99.90;;;;;;4228451;28;20042;-87
2022/11/06 04:32:15;;;;;;;1.83;1.70;;;10.60;99.90;;;;;;4228308;28;20062;-87
2022/11/06 04:34:57;;;;;;;1.73;1.73;;;10.70;99.90;;;;;;4222647;28;20038;-87
2022/11/06 04:37:30;;;;;;;1.60;1.50;;;10.70;99.90;;;;;;4234126;28;20058;-86
2022/11/06 04:40:42;;;;;;;1.83;1.73;;;10.60;99.90;;;;;;4233117;28;20069;-86
2022/11/06 04:43:24;;;;;;;1.65;1.55;;;10.70;99.90;;;;;;4230599;28;20054;-87
2022/11/06 04:45:48;;;;;;;1.48;1.40;;;10.70;99.90;;;;;;4231494;28;20073;-87
2022/11/06 04:48:09;;;;;;;1.70;1.70;;;10.90;99.90;;;;;;4217849;28;20084;-86
2022/11/06 04:50:34;;;;;;;1.30;1.30;;;10.70;99.90;;;;;;4231166;28;20273;-86
2022/11/06 04:52:55;;;;;;;1.60;1.50;;;10.80;99.90;;;;;;4233971;28;20043;-86
2022/11/06 04:55:16;;;;;;;1.63;1.40;;;10.80;99.90;;;;;;4230555;28;20046;-86
2022/11/06 04:57:36;;;;;;;1.73;1.63;;;10.80;99.90;;;;;;4227730;28;20035;-86
2022/11/06 04:59:56;;;;;;;1.63;1.60;;;10.80;99.90;;;;;;4231232;28;20408;-86
2022/11/06 05:02:16;;;;;;;1.65;1.65;;;10.80;99.90;;;;;;4222293;28;20043;-86
2022/11/06 05:04:37;;;;;;;1.70;1.70;;;10.80;99.90;;;;;;4215995;28;20047;-86
2022/11/06 05:06:56;;;;;;;2.70;1.50;;;10.80;99.90;;;;;;4232042;28;20105;-87
2022/11/06 05:09:16;;;;;;;1.40;1.40;;;10.70;99.90;;;;;;4229453;28;20051;-86
2022/11/06 05:11:37;;;;;;;1.75;1.60;;;10.60;99.90;;;;;;4227766;28;20096;-86
2022/11/06 05:13:56;;;;;;;1.58;1.58;;;10.70;99.90;;;;;;4229458;28;20055;-86
2022/11/06 05:16:16;;;;;;;2.08;1.60;;;10.70;99.90;;;;;;4220452;28;20364;-86
2022/11/06 05:18:36;;;;;;;1.63;1.63;;;10.60;99.90;;;;;;4230359;28;20082;-86
2022/11/06 05:23:38;;;;;;;2.53;1.52;;;10.50;99.90;;;;;;4230003;28;20046;-86
2022/11/06 05:25:57;;;;;;;1.58;1.48;;;10.60;99.90;;;;;;4226966;28;20282;-86
2022/11/06 05:28:17;;;;;;;1.95;1.35;;;10.50;99.90;;;;;;4217071;28;20063;-86
2022/11/06 05:30:37;;;;;;;1.20;1.20;;;10.60;99.90;;;;;;4217600;28;20042;-86
2022/11/06 05:32:57;;;;;;;1.48;1.38;;;10.60;99.90;;;;;;4230586;28;20039;-86
2022/11/06 05:35:18;;;;;;;1.20;1.20;;;10.50;99.90;;;;;;4230601;28;20141;-87
2022/11/06 05:37:38;;;;;;;1.48;1.38;;;10.40;99.90;;;;;;4221728;28;20047;-86
2022/11/06 05:39:58;;;;;;;1.50;1.40;;;10.40;99.90;;;;;;4234049;28;20042;-87
2022/11/06 05:42:18;;;;;;;1.40;1.40;;;10.60;99.90;;;;;;4231653;28;20047;-86
2022/11/06 05:44:37;;;;;;;2.25;1.55;;;10.70;99.90;;;;;;4216593;28;20052;-86
2022/11/06 05:46:57;;;;;;;1.85;1.75;;;10.80;99.90;;;;;;4229922;28;20082;-86
2022/11/06 05:49:17;;;;;;;1.50;1.50;;;10.70;99.90;;;;;;4230273;28;20082;-87
2022/11/06 05:51:37;;;;;;;3.15;1.33;;;10.70;99.90;;;;;;4230792;28;20078;-86
2022/11/06 05:53:57;;;;;;;1.60;1.50;;;10.60;99.90;;;;;;4231867;28;20059;-86
2022/11/06 05:56:17;;;;;;;1.55;1.20;;;10.60;99.90;;;;;;4229187;28;20051;-86
2022/11/06 05:58:37;;;;;;;1.40;1.40;;;10.70;99.90;;;;;;4227817;28;20079;-86
2022/11/06 06:00:57;;;;;;;1.40;1.30;;;10.70;99.90;;;;;;4209001;28;20043;-87
2022/11/06 06:03:17;;;;;;;1.92;1.60;;;10.60;99.90;;;;;;4226166;28;20051;-86
2022/11/06 06:05:37;;;;;;;1.52;1.20;;;10.40;99.90;;;;;;4230483;28;20058;-86
2022/11/06 06:07:57;;;;;;;1.33;1.33;;;10.40;99.90;;;;;;4229598;28;20043;-86
2022/11/06 06:10:16;;;;;;;1.35;1.35;;;10.40;99.90;;;;;;4228269;28;20046;-86
2022/11/06 06:12:38;;;;;;;1.45;1.35;;;10.60;99.90;;;;;;4226441;28;20082;-86
2022/11/06 06:14:57;;;;;;;3.75;1.70;;;10.80;99.90;;;;;;4216966;28;20285;-86
2022/11/06 06:17:18;;;;;;;1.85;1.40;;;10.80;99.90;;;;;;4210338;28;20043;-86
2022/11/06 06:19:37;;;;;;;3.67;2.00;;;10.70;99.90;;;;;;4227917;28;20414;-87
2022/11/06 06:21:57;;;;;;;1.83;1.48;;;10.80;99.90;;;;;;4221381;28;20066;-87
2022/11/06 06:24:18;;;;;;;1.40;1.35;;;10.70;99.90;;;;;;4230917;28;20057;-86
2022/11/06 06:26:38;;;;;;;1.50;1.50;;;10.60;99.90;;;;;;4231297;28;20077;-86
2022/11/06 06:28:58;;;;;;;1.30;1.30;;;10.50;99.90;;;;;;4223307;28;20235;-86
2022/11/06 06:31:17;;;;;;;1.95;1.40;;;10.60;99.90;;;;;;4228310;28;20074;-86
2022/11/06 06:33:37;;;;;;;1.90;1.90;;;10.60;99.90;;;;;;4230561;28;20051;-86
2022/11/06 06:35:57;;;;;;;1.48;1.33;;;10.70;99.90;;;;;;4231772;28;20085;-86
2022/11/06 06:38:17;;;;;;;1.65;1.65;;;10.70;99.90;;;;;;4220088;28;20067;-86
2022/11/06 06:40:37;;;;;;;2.47;1.75;;;10.90;99.90;;;;;;4231775;28;20070;-87
2022/11/06 06:42:57;;;;;;;2.97;1.45;;;10.90;99.90;;;;;;4231256;28;19993;-87
2022/11/06 06:45:17;;;;;;;1.60;1.60;;;10.80;99.90;;;;;;4229309;28;20058;-86
2022/11/06 06:47:37;;;;;;;1.60;1.50;;;10.90;99.90;;;;;;4212283;28;20051;-86
2022/11/06 06:49:57;;;;;;;2.03;1.50;;;10.90;99.90;;;;;;4231887;28;20075;-86
2022/11/06 06:52:16;;;;;;;1.13;1.13;;;10.90;99.90;;;;;;4217717;28;20085;-86
2022/11/06 06:54:36;;;;;;;2.13;1.73;;;11.00;99.90;;;;;;4233043;28;20047;-86
2022/11/06 06:56:55;;;;;;;1.90;1.30;;;11.10;99.90;;;;;;4236153;28;20034;-87
2022/11/06 06:59:16;;;;;;;1.70;1.60;;;11.10;99.90;;;;;;4238583;28;20050;-86
2022/11/06 07:01:35;;;;;;;1.48;1.48;;;11.20;99.90;;;;;;4224997;28;20080;-86
2022/11/06 07:03:56;;;;;;;1.38;1.30;;;11.20;99.90;;;;;;4213812;28;20044;-86
2022/11/06 07:06:23;;;;;;;2.15;1.30;;;11.10;99.90;;;;;;4231195;28;20073;-86
2022/11/06 07:08:43;;;;;;;1.35;1.35;;;11.20;99.90;;;;;;4230953;28;20294;-86
2022/11/06 07:11:07;;;;;;;1.38;1.38;;;11.20;99.90;;;;;;4232171;28;20045;-86
2022/11/06 07:13:28;;;;;;;1.63;1.52;;;11.20;99.90;;;;;;4232847;28;20397;-86
2022/11/06 07:15:55;;;;;;;3.03;1.83;;;11.20;99.90;;;;;;4215994;28;20063;-86
2022/11/06 07:18:15;;;;;;;1.20;1.20;;;11.30;99.90;;;;;;4227722;28;20051;-86
2022/11/06 07:20:35;;;;;;;1.30;1.30;;;11.50;99.90;;;;;;4214262;28;20124;-86
2022/11/06 07:22:55;;;;;;;1.35;1.35;;;11.50;99.90;;;;;;4217844;28;20050;-86
2022/11/06 07:25:16;;;;;;;1.42;1.33;;;11.50;99.90;;;;;;4217500;28;20052;-86
2022/11/06 07:27:36;;;;;;;1.85;1.40;;;11.50;99.90;;;;;;4217345;28;20039;-86
2022/11/06 07:29:56;;;;;;;1.45;1.42;;;11.50;99.90;;;;;;4220757;28;20101;-86
2022/11/06 07:32:16;;;;;;;1.55;1.45;;;11.50;99.90;;;;;;4235771;28;20036;-86
2022/11/06 07:34:39;;;;;;;1.67;1.40;;;11.60;99.90;;;;;;4228974;28;20051;-86
2022/11/06 07:36:59;;;;;;;1.58;1.50;;;11.70;99.90;;;;;;4228759;28;20078;-86
2022/11/06 07:39:25;;;;;;;3.95;1.20;;;11.70;99.90;;;;;;4223476;28;20728;-87
2022/11/06 07:41:45;;;;;;;1.85;1.75;;;11.90;99.90;;;;;;4233897;28;20077;-86
2022/11/06 07:44:05;;;;;;;1.25;1.10;;;11.90;99.90;;;;;;4232311;28;20055;-86
2022/11/06 07:46:25;;;;;;;2.25;1.35;;;11.90;99.90;;;;;;4230922;28;20231;-86
2022/11/06 07:48:44;;;;;;;3.72;1.20;;;11.90;99.90;;;;;;4223046;28;20074;-86
2022/11/06 07:51:06;;;;;;;1.88;1.52;;;12.00;99.90;;;;;;4227959;28;20384;-87
2022/11/06 07:53:26;;;;;;;2.22;1.40;;;12.10;99.90;;;;;;4229077;28;20058;-88
2022/11/06 07:55:50;;;;;;;1.10;1.10;;;12.20;99.90;;;;;;4221747;28;20401;-88
2022/11/06 07:58:10;;;;;;;1.23;1.20;;;12.10;99.90;;;;;;4230910;28;20362;-88
2022/11/06 08:00:31;;;;;;;5.32;4.90;;;12.10;99.90;;;;;;4231544;28;20381;-88
2022/11/06 08:02:52;;;;;;;3.42;3.38;;;12.10;99.90;;;;;;4218116;28;20052;-88
2022/11/06 08:05:11;;;;;;;1.42;1.42;;;12.20;99.90;;;;;;4229365;28;20055;-89
2022/11/06 08:07:31;;;;;;;1.15;1.10;;;12.40;99.90;;;;;;4216860;28;20047;-88
2022/11/06 08:09:51;;;;;;;1.10;1.10;;;12.30;99.90;;;;;;4230679;28;20051;-88
2022/11/06 08:12:13;;;;;;;3.65;1.95;;;12.30;99.90;;;;;;4214234;28;20044;-88
2022/11/06 08:14:33;;;;;;;1.30;1.30;;;12.40;99.90;;;;;;4229775;28;20085;-88
2022/11/06 08:16:59;;;;;;;1.27;1.25;;;12.40;99.90;;;;;;4231236;28;20111;-88
2022/11/06 08:19:19;;;;;;;1.70;1.60;;;12.40;99.90;;;;;;4230424;28;20051;-88
2022/11/06 08:21:39;;;;;;;1.40;1.40;;;12.40;99.90;;;;;;4229714;28;20047;-89
2022/11/06 08:23:58;;;;;;;1.38;1.27;;;12.40;99.90;;;;;;4217204;28;20416;-89
2022/11/06 08:26:18;;;;;;;1.38;1.20;;;12.50;99.90;;;;;;4221700;28;20043;-88
2022/11/06 08:28:38;;;;;;;1.17;1.17;;;12.50;99.90;;;;;;4217275;28;20116;-88
2022/11/06 08:31:03;;;;;;;1.30;1.30;;;12.50;99.90;;;;;;4229674;28;20059;-89
2022/11/06 08:33:23;;;;;;;1.23;1.23;;;12.40;99.90;;;;;;4222766;28;20043;-89
2022/11/06 08:35:43;;;;;;;1.10;1.10;;;12.60;99.90;;;;;;4223326;28;20117;-86
2022/11/06 08:38:03;;;;;;;1.33;1.20;;;12.70;99.90;;;;;;4224229;28;20230;-86
2022/11/06 08:40:23;;;;;;;1.23;1.23;;;12.60;99.90;;;;;;4214374;28;20063;-86
2022/11/06 08:42:50;;;;;;;2.05;1.10;;;12.60;99.90;;;;;;4223680;28;20296;-86
2022/11/06 08:45:09;;;;;;;1.58;1.10;;;12.60;99.90;;;;;;4218835;28;20128;-87
2022/11/06 08:47:29;;;;;;;1.10;1.10;;;12.60;99.90;;;;;;4229546;28;20246;-87
2022/11/06 08:49:49;;;;;;;1.08;1.08;;;12.80;99.90;;;;;;4224443;28;20058;-86
2022/11/06 08:52:09;;;;;;;1.40;1.38;;;12.80;99.90;;;;;;4229556;28;20292;-86
2022/11/06 08:54:29;;;;;;;1.25;1.20;;;12.80;99.90;;;;;;4221440;28;20393;-86
2022/11/06 08:56:49;;;;;;;1.17;1.13;;;12.80;99.90;;;;;;4230436;28;20042;-86
2022/11/06 08:59:09;;;;;;;1.10;1.10;;;12.90;99.90;;;;;;4233145;28;20276;-87
2022/11/06 09:01:29;;;;;;;1.20;1.20;;;12.90;99.90;;;;;;4224064;28;20047;-86
2022/11/06 09:03:50;;;;;;;1.85;1.30;;;12.80;99.90;;;;;;4235022;28;20257;-86
2022/11/06 09:06:10;;;;;;;1.77;1.10;;;12.80;99.90;;;;;;4222389;28;20108;-87
2022/11/06 09:08:29;;;;;;;3.40;1.15;;;12.80;99.90;;;;;;4228701;28;20273;-87
2022/11/06 09:10:49;;;;;;;1.33;1.33;;;12.90;99.90;;;;;;4215863;28;20047;-86
2022/11/06 09:13:17;;;;;;;1.42;1.20;;;13.00;99.90;;;;;;4215442;28;20409;-86
2022/11/06 09:15:38;;;;;;;1.10;1.10;;;13.10;99.90;;;;;;4226064;28;20055;-87
2022/11/06 09:17:58;;;;;;;1.10;1.10;;;13.10;99.90;;;;;;4235445;28;20043;-88
2022/11/06 09:20:19;;;;;;;1.10;1.10;;;13.10;99.90;;;;;;4234069;28;20385;-88
2022/11/06 09:22:40;;;;;;;1.10;1.10;;;13.20;99.90;;;;;;4227685;28;20047;-86
2022/11/06 09:24:59;;;;;;;1.10;1.10;;;13.20;99.90;;;;;;4231163;28;20055;-86
2022/11/06 09:27:26;;;;;;;1.25;1.25;;;13.30;99.90;;;;;;4229844;28;20050;-86
2022/11/06 09:29:46;;;;;;;1.20;1.20;;;13.30;99.90;;;;;;4223094;28;20115;-86
2022/11/06 09:32:06;;;;;;;1.00;1.00;;;13.30;99.90;;;;;;4222321;28;20043;-86
2022/11/06 09:34:26;;;;;;;1.00;1.00;;;13.30;99.90;;;;;;4231449;28;20051;-86
2022/11/06 09:36:46;;;;;;;1.10;1.10;;;13.30;99.90;;;;;;4230912;28;20055;-86
2022/11/06 09:39:06;;;;;;;1.13;1.02;;;13.40;99.90;;;;;;4221693;28;20054;-85
2022/11/06 09:41:53;;;;;;;1.40;1.40;;;13.40;99.90;;;;;;4229270;28;20085;-86
2022/11/06 09:44:21;;;;;;;1.10;1.10;;;13.40;99.90;;;;;;4215504;28;20053;-85
2022/11/06 09:46:46;;;;;;;1.13;1.02;;;13.50;99.90;;;;;;4222744;28;20042;-85
2022/11/06 09:49:14;;;;;;;1.60;1.60;;;13.50;99.90;;;;;;4230765;28;20062;-86
2022/11/06 09:51:58;;;;;;;1.08;1.08;;;13.60;99.90;;;;;;4229264;28;20058;-85
2022/11/06 09:54:29;;;;;;;1.20;1.20;;;13.60;99.90;;;;;;4230083;28;20047;-86
2022/11/06 09:56:53;;;;;;;1.70;1.10;;;13.70;99.90;;;;;;4228814;28;20086;-86
2022/11/06 09:59:18;;;;;;;4.50;1.27;;;13.80;99.90;;;;;;4223270;28;20066;-86
2022/11/06 10:01:45;;;;;;;1.10;1.10;;;13.80;99.90;;;;;;4234572;28;20046;-86
2022/11/06 10:04:35;;;;;;;1.60;1.60;;;13.90;99.90;;;;;;4230098;28;20047;-86
2022/11/06 10:06:55;;;;;;;1.13;1.13;;;14.00;99.90;;;;;;4224898;28;20127;-85
2022/11/06 10:09:16;;;;;;;1.00;1.00;;;14.00;99.40;;;;;;4220778;28;20071;-86
2022/11/06 10:11:58;;;;;;;1.20;1.00;;;14.10;99.60;;;;;;4225985;28;20055;-86
2022/11/06 10:14:44;;;;;;;1.10;1.10;;;14.20;99.20;;;;;;4225451;28;20038;-86
2022/11/06 10:17:14;;;;;;;1.00;1.00;;;14.20;99.60;;;;;;4230820;28;20050;-88
2022/11/06 10:19:46;;;;;;;1.00;1.00;;;14.20;98.80;;;;;;4214714;28;20047;-87
2022/11/06 10:22:21;;;;;;;1.17;1.00;;;14.30;99.00;;;;;;4230899;28;20101;-86
2022/11/06 10:25:05;;;;;;;1.00;1.00;;;14.30;98.90;;;;;;4232601;28;20073;-86
2022/11/06 10:27:39;;;;;;;1.67;1.00;;;14.40;99.30;;;;;;4217313;28;20487;-86
2022/11/06 10:29:59;;;;;;;1.00;1.00;;;14.80;99.90;;;;;;4231773;28;20042;-87
2022/11/06 10:32:26;;;;;;;1.42;1.00;;;15.00;99.90;;;;;;4234025;28;20142;-87
2022/11/06 10:34:52;;;;;;;0.98;0.98;;;14.90;97.80;;;;;;4235367;28;20106;-86
2022/11/06 10:37:26;;;;;;;0.95;0.95;;;14.70;97.50;;;;;;4219459;28;20059;-84
2022/11/06 10:39:47;;;;;;;1.20;1.20;;;14.60;97.80;;;;;;4232304;28;20050;-86
2022/11/06 10:42:37;;;;;;;1.20;1.20;;;14.40;97.40;;;;;;4232103;28;20059;-85
2022/11/06 10:45:15;;;;;;;1.20;1.10;;;14.60;98.00;;;;;;4232132;28;20129;-85
2022/11/06 10:47:41;;;;;;;1.20;1.20;;;14.70;96.50;;;;;;4234497;28;20046;-85
2022/11/06 10:50:04;;;;;;;1.92;1.63;;;14.60;96.50;;;;;;4217814;28;20061;-85
2022/11/06 10:53:01;;;;;;;1.05;1.05;;;14.70;96.80;;;;;;4217901;28;20042;-86
2022/11/06 10:55:31;;;;;;;1.08;1.08;;;14.80;96.10;;;;;;4226166;28;20043;-85
2022/11/06 10:58:03;;;;;;;1.98;1.70;;;15.00;97.00;;;;;;4225071;28;20127;-86
2022/11/06 11:00:24;;;;;;;1.30;1.30;;;15.00;96.00;;;;;;4222042;28;20047;-85
2022/11/06 11:02:58;;;;;;;1.92;1.83;;;14.70;96.00;;;;;;4231608;28;20238;-85
2022/11/06 11:05:23;;;;;;;2.38;2.28;;;14.90;96.60;;;;;;4230580;28;20050;-85
2022/11/06 11:07:46;;;;;;;2.90;2.00;;;14.90;96.70;;;;;;4230150;28;20279;-84
2022/11/06 11:10:27;;;;;;;1.60;1.48;;;14.90;95.80;;;;;;4228867;28;20047;-86
2022/11/06 11:12:52;;;;;;;1.35;1.35;;;15.10;96.40;;;;;;4223239;28;20251;-85
2022/11/06 11:15:18;;;;;;;2.10;2.10;;;15.10;95.50;;;;;;4216502;28;20251;-86
2022/11/06 11:17:40;;;;;;;1.90;1.80;;;15.20;94.80;;;;;;4231464;28;20384;-85
2022/11/06 11:20:01;;;;;;;1.48;1.48;;;15.10;94.80;;;;;;4230891;28;20266;-85
2022/11/06 11:22:21;;;;;;;1.20;1.20;;;15.00;94.90;;;;;;4230201;28;20111;-80
2022/11/06 11:25:07;;;;;;;1.20;1.20;;;15.00;94.60;;;;;;4229409;28;20446;-80
2022/11/06 11:27:28;;;;;;;1.88;1.48;;;15.20;94.90;;;;;;4214019;28;20393;-80
2022/11/06 11:29:49;;;;;;;3.08;1.33;;;15.00;93.80;;;;;;4217042;28;20075;-79
2022/11/06 11:32:14;;;;;;;1.00;1.00;;;14.90;95.10;;;;;;4231709;28;20047;-81
2022/11/06 11:34:42;;;;;;;0.90;0.90;;;14.80;94.30;;;;;;4231063;28;20054;-80
2022/11/06 11:37:30;;;;;;;1.08;1.00;;;15.10;94.60;;;;;;4214437;28;20047;-80
2022/11/06 11:39:50;;;;;;;1.10;1.10;;;15.20;96.10;;;;;;4228184;28;20070;-80
2022/11/06 11:42:31;;;;;;;1.77;1.08;;;15.50;95.20;;;;;;4210860;28;20042;-80
2022/11/06 11:45:09;;;;;;;1.15;1.00;;;15.70;94.80;;;;;;4229903;28;20054;-80
2022/11/06 11:47:29;;;;;;;1.00;1.00;;;15.50;94.50;;;;;;4217483;28;20135;-80
2022/11/06 11:49:49;;;;;;;1.00;1.00;;;15.50;94.60;;;;;;4233139;28;20078;-80
2022/11/06 11:52:15;;;;;;;1.20;1.20;;;15.50;94.30;;;;;;4225162;28;20058;-80
2022/11/06 11:54:35;;;;;;;1.33;1.33;;;15.60;94.50;;;;;;4233052;28;20070;-80
2022/11/06 11:56:56;;;;;;;1.00;1.00;;;15.40;93.80;;;;;;4226686;28;20235;-80
2022/11/06 11:59:28;;;;;;;1.50;1.40;;;15.20;93.00;;;;;;4230757;28;20078;-80
2022/11/06 12:01:48;;;;;;;1.00;1.00;;;15.20;94.40;;;;;;4230672;28;20047;-80
2022/11/06 12:04:26;;;;;;;1.20;1.20;;;15.30;95.00;;;;;;4230645;28;20050;-80
2022/11/06 12:06:50;;;;;;;1.33;1.33;;;15.30;94.40;;;;;;4231016;28;20039;-80
2022/11/06 12:09:12;;;;;;;2.13;1.92;;;15.20;93.50;;;;;;4213792;28;20107;-80
2022/11/06 12:11:32;;;;;;;1.02;1.02;;;15.20;93.90;;;;;;4226930;28;20327;-80
2022/11/06 12:14:20;;;;;;;1.05;0.95;;;15.10;93.80;;;;;;4216238;28;20318;-80
2022/11/06 12:16:40;;;;;;;1.48;1.48;;;15.20;93.90;;;;;;4213666;28;20043;-80
2022/11/06 12:19:01;;;;;;;1.00;1.00;;;15.10;94.20;;;;;;4230788;28;20274;-80
2022/11/06 12:21:32;;;;;;;0.95;0.95;;;15.10;93.80;;;;;;4230636;28;20047;-80
2022/11/06 12:23:58;;;;;;;1.00;1.00;;;15.10;93.70;;;;;;4237640;28;20058;-80
2022/11/06 12:26:47;;;;;;;1.23;1.23;;;15.10;94.40;;;;;;4213211;28;20067;-80
2022/11/06 12:29:15;;;;;;;1.00;1.00;;;15.00;94.30;;;;;;4229645;28;20074;-80
2022/11/06 12:32:08;;;;;;;0.95;0.95;;;14.90;94.30;;;;;;4228809;28;20055;-80
2022/11/06 12:34:50;;;;;;;1.00;1.00;;;15.20;94.70;;;;;;4232486;28;20366;-80
2022/11/06 12:37:19;;;;;;;1.10;1.10;;;15.40;94.70;;;;;;4231176;28;20055;-80
2022/11/06 12:39:48;;;;;;;1.00;1.00;;;15.30;94.20;;;;;;4230171;28;20062;-80
2022/11/06 12:42:11;;;;;;;0.90;0.90;;;15.20;93.90;;;;;;4229784;28;20066;-80
2022/11/06 12:44:32;;;;;;;1.00;1.00;;;15.10;93.90;;;;;;4213628;28;20385;-80
2022/11/06 12:47:11;;;;;;;1.08;1.08;;;14.90;93.50;;;;;;4230007;28;20047;-80
2022/11/06 12:49:40;;;;;;;1.52;1.52;;;14.90;94.80;;;;;;4231128;28;20123;-81
2022/11/06 12:52:15;;;;;;;0.90;0.90;;;14.90;94.20;;;;;;4230368;28;20082;-81
2022/11/06 12:54:48;;;;;;;1.00;1.00;;;15.10;94.10;;;;;;4231201;28;20078;-80